Time;durP1;ratioP1;P1;durP2;ratioP2;P2;SDS_P1;SDS_P2;PMS_P1;PMS_P2;Temp;Humidity;BMP_temperature;BMP_pressure;BME280_temperature;BME280_humidity;BME280_pressure;Samples;Min_cycle;Max_cycle;Signal;HPM_P1;HPM_P2
2021/03/02 00:02:05;;;;;;;;;;;;;;;-0.96;79.03;100960.23;1722474;82;20200;-78
2021/03/02 00:04:33;;;;;;;;;;;;;;;-0.97;79.12;100952.66;1723799;82;20193;-76
2021/03/02 00:07:00;;;;;;;;;;;;;;;-0.98;79.08;100957.69;1720659;81;20157;-79
2021/03/02 00:09:28;;;;;;;;;;;;;;;-1.00;78.73;100957.50;1726999;81;20172;-79
2021/03/02 00:11:56;;;;;;;;;;;;;;;-1.04;78.70;100946.24;1733593;81;20455;-77
2021/03/02 00:14:23;;;;;;;;;;;;;;;-1.06;78.73;100948.74;1729844;82;20532;-78
2021/03/02 00:16:56;;;;;;;;;;;;;;;-1.09;78.75;100939.16;1720172;81;20481;-76
2021/03/02 00:19:33;;;;;;;;;;;;;;;-1.13;78.85;100936.42;1720684;83;20172;-81
2021/03/02 00:22:04;;;;;;;;;;;;;;;-1.15;79.08;100920.97;1728065;81;20201;-76
2021/03/02 00:24:34;;;;;;;;;;;;;;;-1.17;79.18;100920.28;1738042;81;20157;-83
2021/03/02 00:27:02;;;;;;;;;;;;;;;-1.17;79.21;100908.69;1719220;81;20208;-79
2021/03/02 00:29:30;;;;;;;;;;;;;;;-1.19;79.53;100914.23;1747277;81;20475;-81
2021/03/02 00:31:57;;;;;;;;;;;;;;;-1.18;79.59;100917.24;1723927;81;20631;-77
2021/03/02 00:34:25;;;;;;;;;;;;;;;-1.16;79.67;100920.61;1732608;81;20146;-79
2021/03/02 00:36:54;;;;;;;;;;;;;;;-1.17;79.58;100914.06;1718713;81;20191;-82
2021/03/02 00:39:21;;;;;;;;;;;;;;;-1.15;79.80;100903.51;1735689;81;20895;-78
2021/03/02 00:41:49;;;;;;;;;;;;;;;-1.14;79.91;100894.46;1734607;81;20189;-77
2021/03/02 00:44:17;;;;;;;;;;;;;;;-1.13;80.00;100888.07;1723494;81;20502;-77
2021/03/02 00:46:45;;;;;;;;;;;;;;;-1.12;79.99;100892.95;1719624;83;20188;-80
2021/03/02 00:49:13;;;;;;;;;;;;;;;-1.14;79.84;100887.75;1719487;81;20216;-75
2021/03/02 00:51:41;;;;;;;;;;;;;;;-1.15;79.90;100886.05;1725075;81;20181;-77
2021/03/02 00:54:09;;;;;;;;;;;;;;;-1.17;79.89;100878.66;1720540;81;20474;-76
2021/03/02 00:56:36;;;;;;;;;;;;;;;-1.17;80.14;100882.69;1719657;82;20160;-78
2021/03/02 00:59:05;;;;;;;;;;;;;;;-1.16;80.20;100883.01;1719101;81;20168;-75
2021/03/02 01:01:35;;;;;;;;;;;;;;;-1.19;80.35;100875.29;1727976;81;20149;-80
2021/03/02 01:04:04;;;;;;;;;;;;;;;-1.21;80.22;100874.58;1740097;81;20188;-77
2021/03/02 01:06:32;;;;;;;;;;;;;;;-1.20;80.25;100875.43;1731348;81;20172;-77
2021/03/02 01:09:01;;;;;;;;;;;;;;;-1.19;80.41;100864.55;1725792;81;20220;-80
2021/03/02 01:11:29;;;;;;;;;;;;;;;-1.18;80.38;100864.88;1677378;83;20180;-82
2021/03/02 01:13:57;;;;;;;;;;;;;;;-1.18;80.44;100867.56;1720730;82;20549;-83
2021/03/02 01:16:25;;;;;;;;;;;;;;;-1.18;80.40;100860.84;1722366;81;20162;-84
2021/03/02 01:18:53;;;;;;;;;;;;;;;-1.16;80.56;100852.12;1698224;83;20231;-83
2021/03/02 01:21:20;;;;;;;;;;;;;;;-1.14;80.50;100854.17;1739657;81;20210;-82
2021/03/02 01:23:47;;;;;;;;;;;;;;;-1.10;80.68;100845.28;1729902;81;20164;-81
2021/03/02 01:26:16;;;;;;;;;;;;;;;-1.06;80.70;100845.31;1719405;81;20252;-81
2021/03/02 01:28:44;;;;;;;;;;;;;;;-1.01;80.56;100838.44;1732695;82;20162;-77
2021/03/02 01:31:12;;;;;;;;;;;;;;;-0.94;80.32;100838.66;1747736;81;20468;-76
2021/03/02 01:33:40;;;;;;;;;;;;;;;-0.91;80.38;100829.75;1740813;81;20652;-84
2021/03/02 01:36:08;;;;;;;;;;;;;;;-0.90;79.84;100831.45;1730366;82;20312;-80
2021/03/02 01:38:36;;;;;;;;;;;;;;;-0.87;79.47;100822.23;1758369;80;20214;-79
2021/03/02 01:41:04;;;;;;;;;;;;;;;-0.85;79.64;100822.41;1745279;80;20217;-79
2021/03/02 01:43:34;;;;;;;;;;;;;;;-0.84;79.30;100825.45;1743582;80;20174;-84
2021/03/02 01:46:03;;;;;;;;;;;;;;;-0.81;79.29;100822.41;1750012;81;20163;-82
2021/03/02 01:48:34;;;;;;;;;;;;;;;-0.79;78.98;100823.12;1725116;80;20503;-81
2021/03/02 01:51:03;;;;;;;;;;;;;;;-0.78;78.62;100815.38;1721933;82;20143;-77
2021/03/02 01:53:30;;;;;;;;;;;;;;;-0.77;79.00;100821.10;1751304;80;20474;-78
2021/03/02 01:55:58;;;;;;;;;;;;;;;-0.72;78.48;100825.98;1753513;81;20150;-78
2021/03/02 01:58:26;;;;;;;;;;;;;;;-0.68;78.60;100813.39;1757778;80;20503;-79
2021/03/02 02:00:57;;;;;;;;;;;;;;;-0.63;78.68;100812.09;1741319;80;20206;-75
2021/03/02 02:03:29;;;;;;;;;;;;;;;-0.62;78.39;100809.72;1738208;80;20167;-79
2021/03/02 02:06:16;;;;;;;;;;;;;;;-0.60;77.77;100798.30;1748415;81;20633;-77
2021/03/02 02:09:10;;;;;;;;;;;;;;;-0.57;78.02;100803.34;1757787;80;20201;-77
2021/03/02 02:11:54;;;;;;;;;;;;;;;-0.57;77.59;100804.20;1745876;81;20166;-81
2021/03/02 02:14:43;;;;;;;;;;;;;;;-0.54;77.54;100807.06;1743682;81;20215;-78
2021/03/02 02:17:42;;;;;;;;;;;;;;;-0.56;77.53;100801.86;1726922;81;20240;-79
2021/03/02 02:20:25;;;;;;;;;;;;;;;-0.52;77.90;100800.52;1743603;82;20464;-79
2021/03/02 02:23:08;;;;;;;;;;;;;;;-0.49;77.62;100804.72;1730939;82;20234;-79
2021/03/02 02:25:55;;;;;;;;;;;;;;;-0.48;78.04;100798.35;1740633;81;20186;-81
2021/03/02 02:28:23;;;;;;;;;;;;;;;-0.45;78.00;100792.63;1691231;83;20214;-80
2021/03/02 02:30:54;;;;;;;;;;;;;;;-0.41;78.37;100792.15;1731092;81;20149;-77
2021/03/02 02:33:23;;;;;;;;;;;;;;;-0.38;78.18;100790.98;1728506;81;20144;-78
2021/03/02 02:35:52;;;;;;;;;;;;;;;-0.34;78.06;100785.59;1709983;83;20165;-77
2021/03/02 02:38:20;;;;;;;;;;;;;;;-0.32;77.99;100786.27;1729742;81;20165;-77
2021/03/02 02:40:51;;;;;;;;;;;;;;;-0.31;77.89;100781.23;1709962;81;20158;-78
2021/03/02 02:43:18;;;;;;;;;;;;;;;-0.30;78.08;100777.52;1728883;81;20653;-78
2021/03/02 02:45:46;;;;;;;;;;;;;;;-0.30;77.96;100762.73;1740972;81;20508;-79
2021/03/02 02:48:13;;;;;;;;;;;;;;;-0.29;78.05;100766.61;1728177;81;20789;-77
2021/03/02 02:50:44;;;;;;;;;;;;;;;-0.31;77.88;100756.53;1728940;81;20334;-77
2021/03/02 02:53:13;;;;;;;;;;;;;;;-0.29;78.01;100746.94;1728699;81;20508;-81
2021/03/02 02:55:47;;;;;;;;;;;;;;;-0.27;78.17;100746.27;1743503;81;20162;-79
2021/03/02 02:58:16;;;;;;;;;;;;;;;-0.27;78.17;100745.77;1743078;81;20161;-80
2021/03/02 03:00:44;;;;;;;;;;;;;;;-0.26;78.16;100741.23;1755923;81;20161;-79
2021/03/02 03:03:15;;;;;;;;;;;;;;;-0.25;78.12;100740.20;1745316;82;20230;-81
2021/03/02 03:05:49;;;;;;;;;;;;;;;-0.22;78.22;100727.28;1727156;81;20692;-82
2021/03/02 03:08:20;;;;;;;;;;;;;;;-0.18;78.26;100731.83;1728038;83;20195;-80
2021/03/02 03:10:49;;;;;;;;;;;;;;;-0.18;78.10;100725.11;1728834;81;20464;-80
2021/03/02 03:13:20;;;;;;;;;;;;;;;-0.17;78.09;100724.92;1733152;82;20188;-77
2021/03/02 03:15:55;;;;;;;;;;;;;;;-0.16;78.42;100719.89;1760281;81;20394;-77
2021/03/02 03:18:25;;;;;;;;;;;;;;;-0.15;78.04;100716.17;1700514;83;20239;-78
2021/03/02 03:20:55;;;;;;;;;;;;;;;-0.15;78.12;100718.86;1738312;81;20206;-79
2021/03/02 03:23:23;;;;;;;;;;;;;;;-0.16;77.89;100705.09;1701783;81;20215;-76
2021/03/02 03:25:51;;;;;;;;;;;;;;;-0.15;78.00;100707.26;1725568;82;20246;-78
2021/03/02 03:28:19;;;;;;;;;;;;;;;-0.14;78.13;100703.07;1727295;81;20513;-76
2021/03/02 03:30:47;;;;;;;;;;;;;;;-0.10;77.87;100694.98;1727313;81;20570;-79
2021/03/02 03:33:17;;;;;;;;;;;;;;;-0.10;78.04;100686.91;1731506;81;20168;-80
2021/03/02 03:35:45;;;;;;;;;;;;;;;-0.08;77.66;100685.42;1728854;81;20503;-80
2021/03/02 03:38:12;;;;;;;;;;;;;;;-0.05;77.84;100685.05;1734120;81;20162;-82
2021/03/02 03:40:40;;;;;;;;;;;;;;;-0.04;77.46;100680.02;1746453;81;20272;-81
2021/03/02 03:43:09;;;;;;;;;;;;;;;-0.05;77.36;100680.52;1735161;81;20476;-82
2021/03/02 03:45:37;;;;;;;;;;;;;;;-0.03;77.27;100677.67;1733830;81;20217;-81
2021/03/02 03:48:06;;;;;;;;;;;;;;;-0.03;77.03;100678.49;1748155;81;20153;-81
2021/03/02 03:50:34;;;;;;;;;;;;;;;0.00;77.06;100688.11;1743130;82;20574;-82
2021/03/02 03:53:02;;;;;;;;;;;;;;;0.02;76.68;100681.20;1744394;81;20460;-80
2021/03/02 03:55:34;;;;;;;;;;;;;;;0.02;76.95;100678.50;1726276;82;20152;-82
2021/03/02 03:58:02;;;;;;;;;;;;;;;0.01;76.71;100674.97;1728225;82;20163;-80
2021/03/02 04:00:30;;;;;;;;;;;;;;;0.02;76.92;100663.70;1743170;81;20150;-81
2021/03/02 04:02:58;;;;;;;;;;;;;;;0.01;76.94;100657.48;1736768;81;20161;-82
2021/03/02 04:05:26;;;;;;;;;;;;;;;0.02;77.24;100657.83;1731622;81;20456;-80
2021/03/02 04:07:54;;;;;;;;;;;;;;;0.05;77.18;100657.48;1737040;81;20164;-80
2021/03/02 04:10:22;;;;;;;;;;;;;;;0.05;77.13;100654.80;1746534;81;20463;-80
2021/03/02 04:12:50;;;;;;;;;;;;;;;0.08;77.04;100659.00;1728728;82;20246;-79
2021/03/02 04:15:19;;;;;;;;;;;;;;;0.08;77.14;100665.20;1739942;81;20149;-80
2021/03/02 04:17:54;;;;;;;;;;;;;;;0.11;77.02;100659.98;1719340;83;20502;-80
2021/03/02 04:20:22;;;;;;;;;;;;;;;0.13;77.14;100663.36;1735916;81;20525;-81
2021/03/02 04:22:50;;;;;;;;;;;;;;;0.14;77.21;100652.41;1744788;81;20172;-79
2021/03/02 04:25:17;;;;;;;;;;;;;;;0.16;76.97;100643.66;1727537;81;20521;-81
2021/03/02 04:27:45;;;;;;;;;;;;;;;0.16;76.94;100649.03;1727738;81;20716;-79
2021/03/02 04:30:13;;;;;;;;;;;;;;;0.17;76.96;100646.69;1727734;81;20184;-80
2021/03/02 04:32:41;;;;;;;;;;;;;;;0.19;76.95;100644.66;1742883;81;20223;-80
2021/03/02 04:35:09;;;;;;;;;;;;;;;0.21;77.00;100644.47;1750413;81;20157;-79
2021/03/02 04:37:37;;;;;;;;;;;;;;;0.22;77.11;100636.25;1727730;81;20489;-81
2021/03/02 04:40:06;;;;;;;;;;;;;;;0.25;76.93;100632.38;1736217;81;20186;-80
2021/03/02 04:42:34;;;;;;;;;;;;;;;0.26;76.95;100633.53;1726004;81;20521;-77
2021/03/02 04:45:03;;;;;;;;;;;;;;;0.27;76.74;100625.80;1747502;81;20188;-81
2021/03/02 04:47:31;;;;;;;;;;;;;;;0.29;77.02;100614.34;1737240;80;20242;-81
2021/03/02 04:49:59;;;;;;;;;;;;;;;0.29;76.92;100612.16;1750659;80;20571;-82
2021/03/02 04:52:26;;;;;;;;;;;;;;;0.29;77.03;100614.34;1763667;80;20151;-80
2021/03/02 04:54:55;;;;;;;;;;;;;;;0.29;77.28;100614.84;1761430;80;20467;-77
2021/03/02 04:57:23;;;;;;;;;;;;;;;0.29;77.18;100613.00;1758959;80;20189;-79
2021/03/02 04:59:52;;;;;;;;;;;;;;;0.33;77.34;100610.81;1742967;80;20150;-81
2021/03/02 05:02:19;;;;;;;;;;;;;;;0.35;77.07;100609.63;1749264;80;20182;-81
2021/03/02 05:04:47;;;;;;;;;;;;;;;0.37;76.99;100611.62;1741816;80;20453;-79
2021/03/02 05:07:15;;;;;;;;;;;;;;;0.41;77.38;100611.60;1752961;80;20198;-77
2021/03/02 05:09:42;;;;;;;;;;;;;;;0.42;77.00;100603.87;1743496;82;20194;-81
2021/03/02 05:12:10;;;;;;;;;;;;;;;0.44;77.07;100592.91;1735260;81;20172;-82
2021/03/02 05:14:39;;;;;;;;;;;;;;;0.44;76.99;100586.17;1733586;81;20163;-78
2021/03/02 05:17:06;;;;;;;;;;;;;;;0.46;77.32;100580.95;1712031;82;20185;-75
2021/03/02 05:19:35;;;;;;;;;;;;;;;0.49;77.09;100580.60;1733011;81;20414;-77
2021/03/02 05:22:03;;;;;;;;;;;;;;;0.50;76.65;100578.25;1741450;82;20183;-76
2021/03/02 05:24:31;;;;;;;;;;;;;;;0.52;76.74;100579.41;1742902;81;20236;-77
2021/03/02 05:26:58;;;;;;;;;;;;;;;0.54;76.89;100578.22;1746277;81;20220;-75
2021/03/02 05:29:25;;;;;;;;;;;;;;;0.56;77.08;100578.88;1753184;80;20520;-75
2021/03/02 05:31:53;;;;;;;;;;;;;;;0.57;76.53;100585.95;1736083;82;20154;-74
2021/03/02 05:34:22;;;;;;;;;;;;;;;0.58;76.63;100586.27;1716418;82;20279;-74
2021/03/02 05:36:49;;;;;;;;;;;;;;;0.59;76.51;100592.00;1737710;82;20257;-73
2021/03/02 05:39:17;;;;;;;;;;;;;;;0.60;76.52;100583.41;1726988;81;20172;-75
2021/03/02 05:41:44;;;;;;;;;;;;;;;0.62;76.50;100584.92;1732241;81;20158;-76
2021/03/02 05:44:13;;;;;;;;;;;;;;;0.63;76.43;100583.07;1730311;81;20217;-75
2021/03/02 05:46:42;;;;;;;;;;;;;;;0.65;76.60;100563.52;1738413;82;20157;-76
2021/03/02 05:49:10;;;;;;;;;;;;;;;0.63;76.47;100580.38;1730805;82;20160;-75
2021/03/02 05:51:39;;;;;;;;;;;;;;;0.63;76.58;100569.06;1725437;81;20178;-72
2021/03/02 05:54:10;;;;;;;;;;;;;;;0.68;76.66;100569.06;1731196;82;20184;-72
2021/03/02 05:56:39;;;;;;;;;;;;;;;0.69;76.82;100565.34;1730101;81;20471;-74
2021/03/02 05:59:08;;;;;;;;;;;;;;;0.72;76.50;100564.98;1735036;80;20481;-74
2021/03/02 06:01:36;;;;;;;;;;;;;;;0.71;76.41;100555.25;1743155;80;20219;-74
2021/03/02 06:04:05;;;;;;;;;;;;;;;0.74;76.90;100553.52;1731739;82;20174;-74
2021/03/02 06:06:34;;;;;;;;;;;;;;;0.76;76.78;100546.13;1729557;82;20197;-74
2021/03/02 06:09:03;;;;;;;;;;;;;;;0.78;76.27;100556.20;1707582;82;20509;-73
2021/03/02 06:11:32;;;;;;;;;;;;;;;0.80;76.23;100553.66;1730233;82;20181;-74
2021/03/02 06:14:22;;;;;;;;;;;;;;;0.81;76.18;100545.08;1735948;81;20555;-73
2021/03/02 06:16:52;;;;;;;;;;;;;;;0.79;76.07;100550.62;1720586;82;20177;-73
2021/03/02 06:19:38;;;;;;;;;;;;;;;0.80;76.04;100547.43;1741157;82;20170;-73
2021/03/02 06:22:06;;;;;;;;;;;;;;;0.81;76.21;100541.03;1738099;81;20493;-75
2021/03/02 06:24:37;;;;;;;;;;;;;;;0.80;76.21;100543.39;1761548;81;20193;-74
2021/03/02 06:27:12;;;;;;;;;;;;;;;0.76;76.13;100534.00;1741966;81;20555;-75
2021/03/02 06:29:41;;;;;;;;;;;;;;;0.72;76.36;100511.11;1727219;83;20481;-75
2021/03/02 06:32:09;;;;;;;;;;;;;;;0.72;76.69;100514.65;1726718;81;20230;-74
2021/03/02 06:34:37;;;;;;;;;;;;;;;0.74;76.82;100512.61;1727272;83;20210;-77
2021/03/02 06:37:06;;;;;;;;;;;;;;;0.75;76.96;100512.95;1742042;81;20213;-77
2021/03/02 06:39:40;;;;;;;;;;;;;;;0.79;77.16;100514.25;1757313;82;20264;-75
2021/03/02 06:42:22;;;;;;;;;;;;;;;0.79;76.95;100514.76;1727984;83;20192;-76
2021/03/02 06:44:51;;;;;;;;;;;;;;;0.81;77.23;100504.66;1727899;83;20523;-73
2021/03/02 06:47:35;;;;;;;;;;;;;;;0.85;77.17;100508.16;1727789;83;20179;-72
2021/03/02 06:50:12;;;;;;;;;;;;;;;0.87;77.05;100495.84;1728573;83;20476;-72
2021/03/02 06:52:43;;;;;;;;;;;;;;;0.88;77.25;100498.37;1748716;81;20553;-74
2021/03/02 06:55:20;;;;;;;;;;;;;;;0.86;77.22;100495.00;1727720;81;20176;-74
2021/03/02 06:57:49;;;;;;;;;;;;;;;0.87;77.21;100495.84;1733930;81;20168;-78
2021/03/02 07:00:19;;;;;;;;;;;;;;;0.86;77.28;100500.39;1737183;81;20213;-76
2021/03/02 07:02:46;;;;;;;;;;;;;;;0.90;77.44;100490.95;1703182;83;20180;-79
2021/03/02 07:05:17;;;;;;;;;;;;;;;0.91;77.37;100489.91;1727775;81;20513;-75
2021/03/02 07:07:46;;;;;;;;;;;;;;;0.97;77.37;100485.16;1754609;82;20185;-81
2021/03/02 07:10:15;;;;;;;;;;;;;;;1.00;77.42;100486.65;1754561;81;20200;-81
2021/03/02 07:12:45;;;;;;;;;;;;;;;1.00;77.38;100492.88;1762365;81;20492;-77
2021/03/02 07:15:20;;;;;;;;;;;;;;;1.03;77.51;100490.34;1733872;81;20462;-74
2021/03/02 07:17:47;;;;;;;;;;;;;;;1.07;77.60;100484.90;1745846;82;20178;-74
2021/03/02 07:20:18;;;;;;;;;;;;;;;1.07;77.48;100484.39;1712490;83;20180;-76
2021/03/02 07:22:49;;;;;;;;;;;;;;;1.06;77.38;100471.92;1739513;82;20170;-76
2021/03/02 07:25:21;;;;;;;;;;;;;;;1.04;77.54;100461.00;1742483;81;20208;-77
2021/03/02 07:27:50;;;;;;;;;;;;;;;1.05;77.72;100455.44;1752080;82;20253;-74
2021/03/02 07:30:19;;;;;;;;;;;;;;;1.07;77.71;100457.44;1746318;81;20558;-78
2021/03/02 07:32:48;;;;;;;;;;;;;;;1.07;77.75;100460.14;1695408;83;20156;-74
2021/03/02 07:35:19;;;;;;;;;;;;;;;1.10;77.92;100444.11;1721427;81;20179;-74
2021/03/02 07:37:47;;;;;;;;;;;;;;;1.10;77.85;100444.95;1722117;81;20152;-78
2021/03/02 07:40:16;;;;;;;;;;;;;;;1.08;78.07;100442.11;1721745;83;20501;-74
2021/03/02 07:42:45;;;;;;;;;;;;;;;1.09;78.08;100434.33;1721517;81;20212;-74
2021/03/02 07:45:14;;;;;;;;;;;;;;;1.10;78.09;100427.43;1722009;83;20155;-76
2021/03/02 07:47:45;;;;;;;;;;;;;;;1.13;78.19;100431.11;1716069;81;20211;-74
2021/03/02 07:50:20;;;;;;;;;;;;;;;1.13;78.19;100427.07;1719435;83;20240;-77
2021/03/02 07:52:48;;;;;;;;;;;;;;;1.14;78.26;100421.14;1719235;81;20172;-74
2021/03/02 07:55:19;;;;;;;;;;;;;;;1.15;78.48;100414.23;1749505;82;20480;-73
2021/03/02 07:57:47;;;;;;;;;;;;;;;1.18;78.48;100423.81;1736160;81;20149;-76
2021/03/02 08:00:21;;;;;;;;;;;;;;;1.20;78.36;100423.11;1738103;83;20175;-75
2021/03/02 08:03:24;;;;;;;;;;;;;;;1.23;78.48;100410.63;1727639;81;20251;-75
2021/03/02 08:05:55;;;;;;;;;;;;;;;1.26;78.42;100410.26;1723036;82;20498;-78
2021/03/02 08:08:27;;;;;;;;;;;;;;;1.30;78.51;100415.59;1727349;81;20175;-78
2021/03/02 08:10:55;;;;;;;;;;;;;;;1.33;78.37;100412.53;1727473;83;20558;-78
2021/03/02 08:13:39;;;;;;;;;;;;;;;1.36;78.38;100405.42;1726812;81;20168;-74
2021/03/02 08:16:09;;;;;;;;;;;;;;;1.33;78.25;100404.45;1729363;82;20160;-73
2021/03/02 08:18:38;;;;;;;;;;;;;;;1.29;78.58;100405.31;1731715;81;20548;-78
2021/03/02 08:21:17;;;;;;;;;;;;;;;1.29;78.57;100395.88;1715375;82;20517;-74
2021/03/02 08:23:54;;;;;;;;;;;;;;;1.32;78.63;100393.32;1744396;81;20211;-76
2021/03/02 08:26:35;;;;;;;;;;;;;;;1.33;78.62;100389.61;1735517;82;20640;-79
2021/03/02 08:29:06;;;;;;;;;;;;;;;1.36;78.72;100396.49;1733385;81;20230;-76
2021/03/02 08:31:35;;;;;;;;;;;;;;;1.32;78.72;100381.19;1739375;81;20165;-75
2021/03/02 08:34:05;;;;;;;;;;;;;;;1.35;78.84;100382.17;1749989;81;20197;-78
2021/03/02 08:36:33;;;;;;;;;;;;;;;1.35;78.72;100379.47;1736255;82;20189;-79
2021/03/02 08:39:00;;;;;;;;;;;;;;;1.36;78.66;100385.20;1729330;81;20207;-76
2021/03/02 08:41:32;;;;;;;;;;;;;;;1.35;78.70;100380.82;1728833;82;20148;-75
2021/03/02 08:44:01;;;;;;;;;;;;;;;1.37;78.71;100388.75;1729226;81;20167;-81
2021/03/02 08:46:31;;;;;;;;;;;;;;;1.38;78.74;100389.89;1744007;82;20166;-82
2021/03/02 08:49:10;;;;;;;;;;;;;;;1.39;78.75;100386.69;1754355;81;20222;-76
2021/03/02 08:51:38;;;;;;;;;;;;;;;1.39;78.76;100390.23;1750341;80;20226;-76
2021/03/02 08:54:06;;;;;;;;;;;;;;;1.43;78.81;100390.67;1753543;81;20168;-81
2021/03/02 08:56:34;;;;;;;;;;;;;;;1.46;78.76;100394.36;1718737;81;20197;-82
2021/03/02 08:59:05;;;;;;;;;;;;;;;1.48;78.64;100391.80;1714425;83;20460;-82
2021/03/02 09:01:34;;;;;;;;;;;;;;;1.48;78.65;100392.30;1738235;81;20228;-76
2021/03/02 09:04:14;;;;;;;;;;;;;;;1.47;78.69;100393.34;1728164;83;20161;-75
2021/03/02 09:06:46;;;;;;;;;;;;;;;1.44;78.76;100381.58;1739699;81;20189;-80
2021/03/02 09:09:20;;;;;;;;;;;;;;;1.40;78.89;100384.30;1732529;83;20198;-75
2021/03/02 09:11:50;;;;;;;;;;;;;;;1.39;79.17;100382.64;1740116;81;20181;-79
2021/03/02 09:14:22;;;;;;;;;;;;;;;1.38;79.11;100383.15;1722593;82;20225;-77
2021/03/02 09:16:53;;;;;;;;;;;;;;;1.39;79.16;100386.19;1736211;81;20490;-80
2021/03/02 09:19:24;;;;;;;;;;;;;;;1.36;79.23;100386.55;1722384;83;20180;-73
2021/03/02 09:21:55;;;;;;;;;;;;;;;1.29;79.53;100386.44;1722476;81;20140;-73
2021/03/02 09:24:30;;;;;;;;;;;;;;;1.29;79.60;100385.63;1718280;83;20430;-74
2021/03/02 09:27:03;;;;;;;;;;;;;;;1.29;79.83;100377.54;1721921;81;20156;-76
2021/03/02 09:29:37;;;;;;;;;;;;;;;1.33;79.76;100380.17;1722942;83;20180;-81
2021/03/02 09:32:05;;;;;;;;;;;;;;;1.33;79.73;100376.13;1723890;81;20156;-72
2021/03/02 09:34:43;;;;;;;;;;;;;;;1.36;79.69;100373.07;1722225;83;20196;-76
2021/03/02 09:37:16;;;;;;;;;;;;;;;1.36;79.67;100371.72;1739268;81;20676;-74
2021/03/02 09:40:04;;;;;;;;;;;;;;;1.34;79.73;100358.95;1739492;82;20264;-77
2021/03/02 09:42:33;;;;;;;;;;;;;;;1.33;79.76;100361.30;1724170;81;20237;-78
2021/03/02 09:45:05;;;;;;;;;;;;;;;1.35;80.01;100353.86;1694215;83;20156;-79
2021/03/02 09:47:34;;;;;;;;;;;;;;;1.35;79.90;100340.88;1749301;81;20487;-76
2021/03/02 09:50:14;;;;;;;;;;;;;;;1.29;80.04;100344.65;1743045;81;20228;-76
2021/03/02 09:52:45;;;;;;;;;;;;;;;1.26;80.14;100331.53;1722336;82;20211;-79
2021/03/02 09:55:22;;;;;;;;;;;;;;;1.25;80.25;100333.08;1722316;81;20164;-80
2021/03/02 09:58:14;;;;;;;;;;;;;;;1.24;80.34;100331.39;1722455;81;20248;-76
2021/03/02 10:00:48;;;;;;;;;;;;;;;1.23;80.40;100321.66;1723117;83;20197;-83
2021/03/02 10:03:25;;;;;;;;;;;;;;;1.25;80.52;100330.38;1722078;81;20168;-86
2021/03/02 10:06:02;;;;;;;;;;;;;;;1.25;80.48;100323.14;1707986;82;20534;-80
2021/03/02 10:08:34;;;;;;;;;;;;;;;1.26;80.61;100319.94;1746269;82;20220;-81
2021/03/02 10:11:15;;;;;;;;;;;;;;;1.23;80.56;100316.27;1722909;81;20291;-82
2021/03/02 10:13:52;;;;;;;;;;;;;;;1.23;80.63;100314.41;1722077;81;20195;-77
2021/03/02 10:16:35;;;;;;;;;;;;;;;1.23;80.71;100318.96;1722603;81;20168;-79
2021/03/02 10:19:23;;;;;;;;;;;;;;;1.21;80.82;100324.52;1743145;81;20256;-74
2021/03/02 10:21:54;;;;;;;;;;;;;;;1.21;80.96;100326.41;1722273;83;20148;-79
2021/03/02 10:24:23;;;;;;;;;;;;;;;1.20;80.98;100330.11;1721811;83;20218;-81
2021/03/02 10:26:53;;;;;;;;;;;;;;;1.15;81.20;100304.22;1722624;81;20470;-78
2021/03/02 10:29:21;;;;;;;;;;;;;;;1.15;81.24;100308.27;1722444;83;20152;-75
2021/03/02 10:31:50;;;;;;;;;;;;;;;1.11;81.44;100298.89;1721726;81;20172;-73
2021/03/02 10:34:18;;;;;;;;;;;;;;;1.08;81.68;100293.87;1740057;82;20310;-80
2021/03/02 10:36:51;;;;;;;;;;;;;;;1.07;81.76;100286.80;1730290;81;20179;-76
2021/03/02 10:39:19;;;;;;;;;;;;;;;1.08;81.72;100286.62;1728452;83;20456;-82
2021/03/02 10:41:47;;;;;;;;;;;;;;;1.06;81.94;100291.34;1732057;81;20177;-80
2021/03/02 10:44:16;;;;;;;;;;;;;;;1.03;82.08;100278.77;1743148;82;20288;-76
2021/03/02 10:46:45;;;;;;;;;;;;;;;1.03;82.05;100270.17;1708821;83;20160;-73
2021/03/02 10:49:13;;;;;;;;;;;;;;;1.07;82.08;100274.66;1734962;82;20166;-76
2021/03/02 10:51:41;;;;;;;;;;;;;;;1.09;81.97;100271.27;1722013;81;20253;-75
2021/03/02 10:54:09;;;;;;;;;;;;;;;1.08;82.01;100255.63;1722273;82;20188;-77
2021/03/02 10:56:37;;;;;;;;;;;;;;;1.10;81.98;100252.23;1725024;81;20315;-77
2021/03/02 10:59:05;;;;;;;;;;;;;;;1.08;81.96;100246.70;1733299;82;20221;-75
2021/03/02 11:01:33;;;;;;;;;;;;;;;1.10;81.91;100237.91;1745192;81;20522;-81
2021/03/02 11:04:03;;;;;;;;;;;;;;;1.12;81.87;100238.55;1710471;82;20162;-83
2021/03/02 11:06:31;;;;;;;;;;;;;;;1.13;81.91;100234.84;1762113;81;20601;-75
2021/03/02 11:09:02;;;;;;;;;;;;;;;1.14;81.86;100229.25;1738032;81;20156;-73
2021/03/02 11:11:30;;;;;;;;;;;;;;;1.13;81.86;100218.67;1722457;83;20482;-76
2021/03/02 11:13:58;;;;;;;;;;;;;;;1.13;81.90;100213.28;1734343;81;20470;-81
2021/03/02 11:16:25;;;;;;;;;;;;;;;1.18;81.88;100204.95;1752444;82;20231;-81
2021/03/02 11:18:54;;;;;;;;;;;;;;;1.21;81.75;100205.09;1738753;81;20208;-80
2021/03/02 11:21:23;;;;;;;;;;;;;;;1.21;81.77;100200.51;1723043;83;20188;-74
2021/03/02 11:23:50;;;;;;;;;;;;;;;1.24;81.74;100200.64;1727142;81;20180;-76
2021/03/02 11:26:18;;;;;;;;;;;;;;;1.23;81.66;100197.14;1722715;83;20148;-74
2021/03/02 11:28:46;;;;;;;;;;;;;;;1.21;81.66;100205.90;1722385;81;20162;-79
2021/03/02 11:31:13;;;;;;;;;;;;;;;1.19;81.75;100199.87;1712408;82;20205;-75
2021/03/02 11:33:41;;;;;;;;;;;;;;;1.17;81.89;100199.73;1747428;81;20271;-75
2021/03/02 11:36:10;;;;;;;;;;;;;;;1.12;82.00;100180.60;1728841;82;20513;-80
2021/03/02 11:38:38;;;;;;;;;;;;;;;1.10;82.25;100161.94;1735518;81;20160;-75
2021/03/02 11:41:05;;;;;;;;;;;;;;;1.10;82.34;100162.44;1695423;82;20518;-80
2021/03/02 11:43:33;;;;;;;;;;;;;;;1.10;82.30;100155.70;1732681;81;20184;-74
2021/03/02 11:46:02;;;;;;;;;;;;;;;1.06;82.43;100151.20;1735486;81;20199;-81
2021/03/02 11:48:30;;;;;;;;;;;;;;;1.04;82.56;100155.95;1730659;81;20227;-80
2021/03/02 11:50:58;;;;;;;;;;;;;;;1.03;82.67;100157.50;1721977;81;20172;-74
2021/03/02 11:53:26;;;;;;;;;;;;;;;0.99;82.50;100142.70;1722125;83;20187;-75
2021/03/02 11:55:55;;;;;;;;;;;;;;;0.97;82.61;100138.87;1740286;81;20205;-80
2021/03/02 11:58:23;;;;;;;;;;;;;;;0.95;82.79;100133.34;1747757;81;20544;-79
2021/03/02 12:00:51;;;;;;;;;;;;;;;0.91;82.92;100135.57;1722490;81;20172;-79
2021/03/02 12:03:21;;;;;;;;;;;;;;;0.91;82.97;100128.03;1722155;83;20191;-78
2021/03/02 12:05:50;;;;;;;;;;;;;;;0.92;83.02;100125.64;1712666;83;20174;-76
2021/03/02 12:08:20;;;;;;;;;;;;;;;0.94;83.01;100133.02;1742394;82;20218;-78
2021/03/02 12:10:47;;;;;;;;;;;;;;;0.92;82.99;100126.48;1734574;81;20557;-79
2021/03/02 12:13:17;;;;;;;;;;;;;;;0.91;83.02;100126.14;1745610;82;20154;-75
2021/03/02 12:15:44;;;;;;;;;;;;;;;0.93;83.07;100125.97;1754286;81;20226;-74
2021/03/02 12:18:12;;;;;;;;;;;;;;;0.95;83.09;100121.22;1743111;81;20162;-80
2021/03/02 12:20:40;;;;;;;;;;;;;;;0.96;83.01;100133.69;1716371;82;20561;-78
2021/03/02 12:23:10;;;;;;;;;;;;;;;0.95;83.12;100122.57;1754339;81;20506;-74
2021/03/02 12:25:38;;;;;;;;;;;;;;;0.95;83.18;100123.92;1738070;82;20241;-75
2021/03/02 12:28:06;;;;;;;;;;;;;;;0.97;83.10;100113.78;1719182;81;20474;-75
2021/03/02 12:30:34;;;;;;;;;;;;;;;1.00;83.09;100116.94;1719833;83;20650;-80
2021/03/02 12:33:03;;;;;;;;;;;;;;;0.98;83.15;100120.34;1694320;82;20287;-77
2021/03/02 12:35:31;;;;;;;;;;;;;;;1.00;83.10;100117.45;1749199;82;20468;-74
2021/03/02 12:38:00;;;;;;;;;;;;;;;0.98;83.01;100111.42;1728589;82;20550;-78
2021/03/02 12:40:28;;;;;;;;;;;;;;;0.97;83.10;100124.55;1743008;82;20181;-80
2021/03/02 12:42:55;;;;;;;;;;;;;;;0.93;83.29;100109.80;1741894;82;20278;-79
2021/03/02 12:45:23;;;;;;;;;;;;;;;0.91;83.48;100107.28;1741080;82;20201;-80
2021/03/02 12:47:50;;;;;;;;;;;;;;;0.91;83.42;100099.73;1742778;81;20584;-76
2021/03/02 12:50:18;;;;;;;;;;;;;;;0.91;83.48;100093.81;1735131;82;20331;-80
2021/03/02 12:52:46;;;;;;;;;;;;;;;0.90;83.54;100098.05;1720279;81;20192;-75
2021/03/02 12:55:14;;;;;;;;;;;;;;;0.90;83.52;100084.58;1723517;82;20200;-74
2021/03/02 12:57:44;;;;;;;;;;;;;;;0.92;83.56;100085.22;1719388;83;20168;-81
2021/03/02 13:00:13;;;;;;;;;;;;;;;0.88;83.58;100075.86;1721484;81;20174;-81